sensor_id;sensor_type;location;lat;lon;timestamp;pressure;altitude;pressure_sealevel;temperature;humidity
44481;BME280;30184;42.018;23.670;2023-04-28T00:00:20;91595.81;;;2.94;74.79
44481;BME280;30184;42.018;23.670;2023-04-28T00:02:51;91532.97;;;2.45;74.99
44481;BME280;30184;42.018;23.670;2023-04-28T00:05:20;91611.50;;;2.88;74.77
44481;BME280;30184;42.018;23.670;2023-04-28T00:07:52;91619.94;;;2.90;74.63
44481;BME280;30184;42.018;23.670;2023-04-28T00:10:21;91621.09;;;2.86;74.95
44481;BME280;30184;42.018;23.670;2023-04-28T00:12:51;91526.41;;;2.21;74.39
44481;BME280;30184;42.018;23.670;2023-04-28T00:15:21;91561.22;;;2.32;74.45
44481;BME280;30184;42.018;23.670;2023-04-28T00:17:52;91623.72;;;2.68;74.57
44481;BME280;30184;42.018;23.670;2023-04-28T00:20:22;91602.25;;;2.65;74.58
44481;BME280;30184;42.018;23.670;2023-04-28T00:22:52;91704.16;;;2.13;74.43
44481;BME280;30184;42.018;23.670;2023-04-28T00:25:21;91612.94;;;2.54;74.79
44481;BME280;30184;42.018;23.670;2023-04-28T00:27:51;91608.72;;;2.46;74.60
44481;BME280;30184;42.018;23.670;2023-04-28T00:30:21;91612.50;;;2.34;74.43
44481;BME280;30184;42.018;23.670;2023-04-28T00:32:53;91623.19;;;2.27;74.90
44481;BME280;30184;42.018;23.670;2023-04-28T00:35:23;91599.25;;;1.86;75.51
44481;BME280;30184;42.018;23.670;2023-04-28T00:37:53;91551.81;;;1.76;76.22
44481;BME280;30184;42.018;23.670;2023-04-28T00:40:23;91619.13;;;1.82;76.53
44481;BME280;30184;42.018;23.670;2023-04-28T00:42:53;91650.59;;;2.06;76.44
44481;BME280;30184;42.018;23.670;2023-04-28T00:45:22;91628.06;;;2.07;76.91
44481;BME280;30184;42.018;23.670;2023-04-28T00:47:55;91561.69;;;1.62;77.17
44481;BME280;30184;42.018;23.670;2023-04-28T00:50:25;91634.47;;;1.92;77.97
44481;BME280;30184;42.018;23.670;2023-04-28T00:52:55;91627.56;;;1.87;77.97
44481;BME280;30184;42.018;23.670;2023-04-28T00:55:25;91532.06;;;1.26;77.69
44481;BME280;30184;42.018;23.670;2023-04-28T00:57:56;91606.44;;;1.72;77.62
44481;BME280;30184;42.018;23.670;2023-04-28T01:00:27;91638.59;;;1.79;77.49
44481;BME280;30184;42.018;23.670;2023-04-28T01:02:58;91534.69;;;1.19;77.20
44481;BME280;30184;42.018;23.670;2023-04-28T01:05:32;91605.91;;;1.48;77.07
44481;BME280;30184;42.018;23.670;2023-04-28T01:08:04;91625.91;;;1.65;77.22
44481;BME280;30184;42.018;23.670;2023-04-28T01:10:34;91489.69;;;0.70;77.45
44481;BME280;30184;42.018;23.670;2023-04-28T01:13:11;91522.22;;;0.83;78.02
44481;BME280;30184;42.018;23.670;2023-04-28T01:15:41;91547.50;;;0.96;78.45
44481;BME280;30184;42.018;23.670;2023-04-28T01:18:12;91543.66;;;0.93;78.81
44481;BME280;30184;42.018;23.670;2023-04-28T01:20:43;91611.19;;;1.38;79.25
44481;BME280;30184;42.018;23.670;2023-04-28T01:23:12;91526.72;;;0.75;79.25
44481;BME280;30184;42.018;23.670;2023-04-28T01:25:44;91559.69;;;0.93;79.50
44481;BME280;30184;42.018;23.670;2023-04-28T01:28:14;91570.22;;;0.75;80.08
44481;BME280;30184;42.018;23.670;2023-04-28T01:30:43;91532.03;;;0.31;79.86
44481;BME280;30184;42.018;23.670;2023-04-28T01:33:13;91638.63;;;1.31;80.32
44481;BME280;30184;42.018;23.670;2023-04-28T01:35:42;91644.72;;;1.28;80.63
44481;BME280;30184;42.018;23.670;2023-04-28T01:38:12;91687.06;;;1.23;80.20
44481;BME280;30184;42.018;23.670;2023-04-28T01:40:45;91564.38;;;0.63;79.93
44481;BME280;30184;42.018;23.670;2023-04-28T01:43:15;91650.75;;;1.18;80.29
44481;BME280;30184;42.018;23.670;2023-04-28T01:45:44;91638.88;;;1.16;80.69
44481;BME280;30184;42.018;23.670;2023-04-28T01:48:14;91643.81;;;1.13;81.03
44481;BME280;30184;42.018;23.670;2023-04-28T01:50:46;91619.41;;;0.71;81.21
44481;BME280;30184;42.018;23.670;2023-04-28T01:53:15;91676.19;;;1.01;81.19
44481;BME280;30184;42.018;23.670;2023-04-28T01:55:49;91466.25;;;-0.62;81.01
44481;BME280;30184;42.018;23.670;2023-04-28T01:58:19;91522.38;;;0.16;81.10
44481;BME280;30184;42.018;23.670;2023-04-28T02:00:49;91583.44;;;0.61;81.23
44481;BME280;30184;42.018;23.670;2023-04-28T02:03:21;91557.66;;;0.39;81.00
44481;BME280;30184;42.018;23.670;2023-04-28T02:05:51;91694.78;;;0.94;80.59
44481;BME280;30184;42.018;23.670;2023-04-28T02:08:21;91756.38;;;0.42;80.60
44481;BME280;30184;42.018;23.670;2023-04-28T02:10:53;91645.50;;;0.88;80.50
44481;BME280;30184;42.018;23.670;2023-04-28T02:13:23;91550.53;;;0.13;80.59
44481;BME280;30184;42.018;23.670;2023-04-28T02:15:53;91479.38;;;-0.46;80.48
44481;BME280;30184;42.018;23.670;2023-04-28T02:18:23;91556.72;;;0.21;80.53
44481;BME280;30184;42.018;23.670;2023-04-28T02:20:53;91643.44;;;0.74;80.91
44481;BME280;30184;42.018;23.670;2023-04-28T02:23:23;91684.19;;;0.64;81.43
44481;BME280;30184;42.018;23.670;2023-04-28T02:26:00;91652.22;;;0.71;81.41
44481;BME280;30184;42.018;23.670;2023-04-28T02:28:30;91572.69;;;0.17;81.28
44481;BME280;30184;42.018;23.670;2023-04-28T02:31:08;91633.34;;;0.54;81.25
44481;BME280;30184;42.018;23.670;2023-04-28T02:33:37;91694.91;;;0.68;81.37
44481;BME280;30184;42.018;23.670;2023-04-28T02:36:11;91702.91;;;0.68;81.88
44481;BME280;30184;42.018;23.670;2023-04-28T02:38:41;91553.72;;;-0.08;82.07
44481;BME280;30184;42.018;23.670;2023-04-28T02:41:13;91660.94;;;0.65;82.27
44481;BME280;30184;42.018;23.670;2023-04-28T02:43:43;91668.53;;;0.63;82.38
44481;BME280;30184;42.018;23.670;2023-04-28T02:46:13;91585.84;;;-0.01;82.63
44481;BME280;30184;42.018;23.670;2023-04-28T02:48:43;91492.22;;;-0.85;82.56
44481;BME280;30184;42.018;23.670;2023-04-28T02:51:13;91665.28;;;0.47;82.71
44481;BME280;30184;42.018;23.670;2023-04-28T02:53:43;91585.38;;;-0.06;82.75
44481;BME280;30184;42.018;23.670;2023-04-28T02:56:15;91717.94;;;0.50;82.89
44481;BME280;30184;42.018;23.670;2023-04-28T02:58:44;91681.72;;;0.49;82.91
44481;BME280;30184;42.018;23.670;2023-04-28T03:01:14;91573.72;;;-0.24;82.81
44481;BME280;30184;42.018;23.670;2023-04-28T03:03:44;91510.78;;;-0.62;82.81
44481;BME280;30184;42.018;23.670;2023-04-28T03:06:13;91729.34;;;0.47;83.03
44481;BME280;30184;42.018;23.670;2023-04-28T03:08:43;91482.81;;;-1.32;82.82
44481;BME280;30184;42.018;23.670;2023-04-28T03:11:14;91607.00;;;-0.15;82.95
44481;BME280;30184;42.018;23.670;2023-04-28T03:13:44;91695.69;;;0.38;83.25
44481;BME280;30184;42.018;23.670;2023-04-28T03:16:14;91676.44;;;0.22;83.38
44481;BME280;30184;42.018;23.670;2023-04-28T03:18:44;91727.56;;;0.24;83.35
44481;BME280;30184;42.018;23.670;2023-04-28T03:21:14;91520.59;;;-0.96;83.47
44481;BME280;30184;42.018;23.670;2023-04-28T03:23:44;91660.97;;;0.05;83.84
44481;BME280;30184;42.018;23.670;2023-04-28T03:26:16;91714.66;;;0.30;84.04
44481;BME280;30184;42.018;23.670;2023-04-28T03:28:48;91620.28;;;-0.45;84.09
44481;BME280;30184;42.018;23.670;2023-04-28T03:31:18;91671.94;;;-0.30;84.19
44481;BME280;30184;42.018;23.670;2023-04-28T03:33:47;91631.94;;;-0.30;84.07
44481;BME280;30184;42.018;23.670;2023-04-28T03:36:18;91537.81;;;-0.90;84.08
44481;BME280;30184;42.018;23.670;2023-04-28T03:38:48;91721.94;;;0.33;84.10
44481;BME280;30184;42.018;23.670;2023-04-28T03:41:22;91723.13;;;0.35;84.08
44481;BME280;30184;42.018;23.670;2023-04-28T03:44:10;91731.13;;;0.35;84.02
44481;BME280;30184;42.018;23.670;2023-04-28T03:46:47;91740.69;;;0.36;83.91
44481;BME280;30184;42.018;23.670;2023-04-28T03:49:17;91734.19;;;0.37;83.81
44481;BME280;30184;42.018;23.670;2023-04-28T03:51:47;91569.66;;;-0.71;83.82
44481;BME280;30184;42.018;23.670;2023-04-28T03:54:18;91776.16;;;0.37;83.88
44481;BME280;30184;42.018;23.670;2023-04-28T03:56:49;91729.00;;;0.18;83.60
44481;BME280;30184;42.018;23.670;2023-04-28T03:59:19;91661.78;;;-0.21;83.56
44481;BME280;30184;42.018;23.670;2023-04-28T04:01:49;91656.47;;;-0.17;83.45
44481;BME280;30184;42.018;23.670;2023-04-28T04:04:18;91582.53;;;-0.77;83.51
44481;BME280;30184;42.018;23.670;2023-04-28T04:06:49;91756.38;;;0.42;83.74
44481;BME280;30184;42.018;23.670;2023-04-28T04:09:19;91695.66;;;0.05;83.63
44481;BME280;30184;42.018;23.670;2023-04-28T04:11:50;91757.59;;;0.48;83.66
44481;BME280;30184;42.018;23.670;2023-04-28T04:14:19;91793.47;;;0.50;83.26
44481;BME280;30184;42.018;23.670;2023-04-28T04:16:49;91760.72;;;0.53;82.94
44481;BME280;30184;42.018;23.670;2023-04-28T04:19:19;91504.38;;;-1.14;82.78
44481;BME280;30184;42.018;23.670;2023-04-28T04:21:53;91792.50;;;0.62;82.97
44481;BME280;30184;42.018;23.670;2023-04-28T04:24:23;91769.25;;;0.62;82.90
44481;BME280;30184;42.018;23.670;2023-04-28T04:26:55;91678.56;;;0.10;82.94
44481;BME280;30184;42.018;23.670;2023-04-28T04:29:32;91749.19;;;0.46;82.98
44481;BME280;30184;42.018;23.670;2023-04-28T04:32:07;91776.16;;;0.67;82.90
44481;BME280;30184;42.018;23.670;2023-04-28T04:34:38;91803.28;;;0.43;82.98
44481;BME280;30184;42.018;23.670;2023-04-28T04:37:08;91799.78;;;0.65;82.83
44481;BME280;30184;42.018;23.670;2023-04-28T04:39:51;91767.50;;;0.77;82.94
44481;BME280;30184;42.018;23.670;2023-04-28T04:42:22;91729.81;;;0.22;82.88
44481;BME280;30184;42.018;23.670;2023-04-28T04:45:08;91773.31;;;0.86;83.08
44481;BME280;30184;42.018;23.670;2023-04-28T04:47:38;91751.88;;;0.79;82.98
44481;BME280;30184;42.018;23.670;2023-04-28T04:50:09;91624.19;;;-0.12;82.69
44481;BME280;30184;42.018;23.670;2023-04-28T04:52:40;91792.47;;;1.62;82.68
44481;BME280;30184;42.018;23.670;2023-04-28T04:55:10;91775.31;;;2.14;80.87
44481;BME280;30184;42.018;23.670;2023-04-28T04:57:43;91685.75;;;2.05;78.67
44481;BME280;30184;42.018;23.670;2023-04-28T05:00:17;91793.41;;;2.97;76.78
44481;BME280;30184;42.018;23.670;2023-04-28T05:02:47;91677.31;;;2.68;75.09
44481;BME280;30184;42.018;23.670;2023-04-28T05:05:17;91832.19;;;3.14;73.11
44481;BME280;30184;42.018;23.670;2023-04-28T05:08:14;91768.28;;;3.41;71.87
44481;BME280;30184;42.018;23.670;2023-04-28T05:10:44;91758.00;;;3.85;71.28
44481;BME280;30184;42.018;23.670;2023-04-28T05:13:16;91812.47;;;3.96;71.50
44481;BME280;30184;42.018;23.670;2023-04-28T05:15:50;91791.00;;;4.00;71.56
44481;BME280;30184;42.018;23.670;2023-04-28T05:18:42;91744.22;;;3.97;71.28
44481;BME280;30184;42.018;23.670;2023-04-28T05:21:13;91682.06;;;3.56;70.76
44481;BME280;30184;42.018;23.670;2023-04-28T05:23:43;91765.28;;;3.99;70.38
44481;BME280;30184;42.018;23.670;2023-04-28T05:26:13;91774.50;;;4.23;69.25
44481;BME280;30184;42.018;23.670;2023-04-28T05:28:45;91762.19;;;4.36;68.89
44481;BME280;30184;42.018;23.670;2023-04-28T05:31:14;91764.50;;;4.52;69.02
44481;BME280;30184;42.018;23.670;2023-04-28T05:33:44;91794.06;;;4.62;69.12
44481;BME280;30184;42.018;23.670;2023-04-28T05:36:14;91716.19;;;4.23;67.63
44481;BME280;30184;42.018;23.670;2023-04-28T05:38:45;91726.44;;;4.64;67.36
44481;BME280;30184;42.018;23.670;2023-04-28T05:41:15;91769.47;;;4.67;67.41
44481;BME280;30184;42.018;23.670;2023-04-28T05:43:46;91761.63;;;5.12;66.62
44481;BME280;30184;42.018;23.670;2023-04-28T05:46:18;91710.44;;;4.07;65.46
44481;BME280;30184;42.018;23.670;2023-04-28T05:48:56;91660.41;;;4.70;64.88
44481;BME280;30184;42.018;23.670;2023-04-28T05:51:27;91675.25;;;4.99;64.76
44481;BME280;30184;42.018;23.670;2023-04-28T05:53:57;91685.22;;;5.09;63.03
44481;BME280;30184;42.018;23.670;2023-04-28T05:56:28;91717.25;;;5.55;62.96
44481;BME280;30184;42.018;23.670;2023-04-28T05:59:00;91788.59;;;5.92;61.13
44481;BME280;30184;42.018;23.670;2023-04-28T06:01:31;91751.91;;;6.05;60.55
44481;BME280;30184;42.018;23.670;2023-04-28T06:04:00;91693.28;;;5.72;60.29
44481;BME280;30184;42.018;23.670;2023-04-28T06:06:30;91774.50;;;6.22;59.97
44481;BME280;30184;42.018;23.670;2023-04-28T06:09:01;91679.38;;;5.80;60.47
44481;BME280;30184;42.018;23.670;2023-04-28T06:11:32;91753.53;;;6.44;61.31
44481;BME280;30184;42.018;23.670;2023-04-28T06:14:03;91658.91;;;5.86;61.02
44481;BME280;30184;42.018;23.670;2023-04-28T06:16:33;91766.63;;;6.45;60.39
44481;BME280;30184;42.018;23.670;2023-04-28T06:19:02;91762.00;;;6.46;58.61
44481;BME280;30184;42.018;23.670;2023-04-28T06:21:32;91713.78;;;6.10;58.76
44481;BME280;30184;42.018;23.670;2023-04-28T06:24:03;91752.13;;;6.73;57.02
44481;BME280;30184;42.018;23.670;2023-04-28T06:26:32;91757.72;;;6.89;57.39
44481;BME280;30184;42.018;23.670;2023-04-28T06:29:03;91755.66;;;7.04;58.30
44481;BME280;30184;42.018;23.670;2023-04-28T06:31:32;91744.72;;;7.15;57.37
44481;BME280;30184;42.018;23.670;2023-04-28T06:34:02;91749.91;;;7.32;57.97
44481;BME280;30184;42.018;23.670;2023-04-28T06:36:32;91506.25;;;5.83;57.36
44481;BME280;30184;42.018;23.670;2023-04-28T06:39:03;91504.91;;;6.02;57.36
44481;BME280;30184;42.018;23.670;2023-04-28T06:41:33;91740.81;;;7.80;56.05
44481;BME280;30184;42.018;23.670;2023-04-28T06:44:06;91520.06;;;6.23;55.15
44481;BME280;30184;42.018;23.670;2023-04-28T06:46:35;91522.72;;;6.57;54.34
44481;BME280;30184;42.018;23.670;2023-04-28T06:49:05;91771.50;;;8.20;53.52
44481;BME280;30184;42.018;23.670;2023-04-28T06:51:34;91737.63;;;8.39;51.66
44481;BME280;30184;42.018;23.670;2023-04-28T06:54:21;91749.34;;;8.55;52.57
44481;BME280;30184;42.018;23.670;2023-04-28T06:56:50;91507.00;;;7.05;50.32
44481;BME280;30184;42.018;23.670;2023-04-28T06:59:23;91703.00;;;8.53;48.97
44481;BME280;30184;42.018;23.670;2023-04-28T07:01:52;91735.63;;;8.89;49.24
44481;BME280;30184;42.018;23.670;2023-04-28T07:04:22;91724.25;;;8.98;49.77
44481;BME280;30184;42.018;23.670;2023-04-28T07:06:51;91653.63;;;8.49;49.41
44481;BME280;30184;42.018;23.670;2023-04-28T07:09:20;91652.13;;;8.68;49.21
44481;BME280;30184;42.018;23.670;2023-04-28T07:11:50;91634.31;;;8.71;48.55
44481;BME280;30184;42.018;23.670;2023-04-28T07:14:19;91713.81;;;9.36;47.94
44481;BME280;30184;42.018;23.670;2023-04-28T07:16:50;91760.00;;;9.49;46.72
44481;BME280;30184;42.018;23.670;2023-04-28T07:19:19;91719.66;;;9.54;46.49
44481;BME280;30184;42.018;23.670;2023-04-28T07:21:49;91726.72;;;9.68;46.47
44481;BME280;30184;42.018;23.670;2023-04-28T07:24:18;91604.50;;;9.10;46.21
44481;BME280;30184;42.018;23.670;2023-04-28T07:26:47;91598.16;;;8.81;44.79
44481;BME280;30184;42.018;23.670;2023-04-28T07:29:16;91708.72;;;9.94;46.44
44481;BME280;30184;42.018;23.670;2023-04-28T07:31:46;91730.94;;;9.89;45.82
44481;BME280;30184;42.018;23.670;2023-04-28T07:34:16;91511.84;;;8.86;44.97
44481;BME280;30184;42.018;23.670;2023-04-28T07:36:46;91726.16;;;10.29;44.38
44481;BME280;30184;42.018;23.670;2023-04-28T07:39:15;91706.69;;;10.34;44.66
44481;BME280;30184;42.018;23.670;2023-04-28T07:41:45;91692.44;;;10.46;44.68
44481;BME280;30184;42.018;23.670;2023-04-28T07:44:14;91706.16;;;10.55;43.78
44481;BME280;30184;42.018;23.670;2023-04-28T07:46:43;91673.28;;;10.21;43.63
44481;BME280;30184;42.018;23.670;2023-04-28T07:49:13;91696.81;;;10.72;43.44
44481;BME280;30184;42.018;23.670;2023-04-28T07:51:43;91611.31;;;10.35;42.57
44481;BME280;30184;42.018;23.670;2023-04-28T07:54:13;91689.19;;;10.96;43.19
44481;BME280;30184;42.018;23.670;2023-04-28T07:56:43;91702.16;;;11.05;42.52
44481;BME280;30184;42.018;23.670;2023-04-28T07:59:13;91716.28;;;11.29;42.42
44481;BME280;30184;42.018;23.670;2023-04-28T08:01:43;91681.94;;;11.35;41.90
44481;BME280;30184;42.018;23.670;2023-04-28T08:04:12;91656.38;;;11.19;41.24
44481;BME280;30184;42.018;23.670;2023-04-28T08:06:43;91595.78;;;10.94;41.26
44481;BME280;30184;42.018;23.670;2023-04-28T08:09:12;91595.28;;;10.99;40.70
44481;BME280;30184;42.018;23.670;2023-04-28T08:11:42;91590.19;;;11.13;40.96
44481;BME280;30184;42.018;23.670;2023-04-28T08:14:11;91662.03;;;11.79;40.70
44481;BME280;30184;42.018;23.670;2023-04-28T08:16:41;91698.06;;;11.83;40.21
44481;BME280;30184;42.018;23.670;2023-04-28T08:19:10;91659.34;;;11.92;40.08
44481;BME280;30184;42.018;23.670;2023-04-28T08:21:39;91653.34;;;12.10;39.43
44481;BME280;30184;42.018;23.670;2023-04-28T08:24:10;91508.63;;;11.17;40.07
44481;BME280;30184;42.018;23.670;2023-04-28T08:26:39;91590.16;;;11.93;39.89
44481;BME280;30184;42.018;23.670;2023-04-28T08:29:08;91638.81;;;12.51;39.45
44481;BME280;30184;42.018;23.670;2023-04-28T08:31:37;91568.25;;;12.09;38.12
44481;BME280;30184;42.018;23.670;2023-04-28T08:34:06;91590.78;;;12.10;36.51
44481;BME280;30184;42.018;23.670;2023-04-28T08:36:36;91709.41;;;12.80;37.16
44481;BME280;30184;42.018;23.670;2023-04-28T08:39:05;91624.88;;;12.83;36.24
44481;BME280;30184;42.018;23.670;2023-04-28T08:41:38;91464.78;;;11.78;36.08
44481;BME280;30184;42.018;23.670;2023-04-28T08:44:08;91487.59;;;11.93;34.62
44481;BME280;30184;42.018;23.670;2023-04-28T08:46:39;91602.97;;;12.52;37.49
44481;BME280;30184;42.018;23.670;2023-04-28T08:49:13;91629.09;;;13.19;35.64
44481;BME280;30184;42.018;23.670;2023-04-28T08:51:44;91617.94;;;13.26;36.20
44481;BME280;30184;42.018;23.670;2023-04-28T08:54:14;91617.28;;;13.34;35.26
44481;BME280;30184;42.018;23.670;2023-04-28T08:56:53;91621.31;;;13.52;35.20
44481;BME280;30184;42.018;23.670;2023-04-28T08:59:23;91618.69;;;13.48;34.22
44481;BME280;30184;42.018;23.670;2023-04-28T09:01:53;91523.41;;;12.92;34.50
44481;BME280;30184;42.018;23.670;2023-04-28T09:04:23;91617.09;;;13.60;34.08
44481;BME280;30184;42.018;23.670;2023-04-28T09:06:53;91487.03;;;12.77;33.98
44481;BME280;30184;42.018;23.670;2023-04-28T09:09:23;91612.13;;;13.67;33.74
44481;BME280;30184;42.018;23.670;2023-04-28T09:11:55;91605.44;;;13.59;33.62
44481;BME280;30184;42.018;23.670;2023-04-28T09:14:28;91608.78;;;13.63;34.20
44481;BME280;30184;42.018;23.670;2023-04-28T09:16:57;91606.81;;;13.64;33.87
44481;BME280;30184;42.018;23.670;2023-04-28T09:19:32;91609.53;;;13.64;34.20
44481;BME280;30184;42.018;23.670;2023-04-28T09:22:03;91536.91;;;13.17;34.42
44481;BME280;30184;42.018;23.670;2023-04-28T09:24:40;91600.38;;;13.49;34.98
44481;BME280;30184;42.018;23.670;2023-04-28T09:27:12;91600.19;;;13.74;33.80
44481;BME280;30184;42.018;23.670;2023-04-28T09:29:51;91596.69;;;13.73;33.00
44481;BME280;30184;42.018;23.670;2023-04-28T09:32:22;91637.66;;;13.82;34.48
44481;BME280;30184;42.018;23.670;2023-04-28T09:34:53;91605.16;;;13.97;34.17
44481;BME280;30184;42.018;23.670;2023-04-28T09:37:25;91511.47;;;13.42;33.01
44481;BME280;30184;42.018;23.670;2023-04-28T09:40:02;91472.47;;;13.23;32.46
44481;BME280;30184;42.018;23.670;2023-04-28T09:42:36;91581.97;;;14.11;32.98
44481;BME280;30184;42.018;23.670;2023-04-28T09:45:06;91587.34;;;14.24;32.67
44481;BME280;30184;42.018;23.670;2023-04-28T09:47:38;91563.25;;;13.82;33.27
44481;BME280;30184;42.018;23.670;2023-04-28T09:50:10;91618.78;;;14.46;33.31
44481;BME280;30184;42.018;23.670;2023-04-28T09:52:41;91576.50;;;14.60;32.31
44481;BME280;30184;42.018;23.670;2023-04-28T09:55:13;91484.97;;;14.10;33.00
44481;BME280;30184;42.018;23.670;2023-04-28T09:57:47;91568.16;;;14.54;31.32
44481;BME280;30184;42.018;23.670;2023-04-28T10:00:18;91556.75;;;14.65;33.25
44481;BME280;30184;42.018;23.670;2023-04-28T10:02:48;91480.28;;;14.19;32.59
44481;BME280;30184;42.018;23.670;2023-04-28T10:05:19;91571.34;;;14.53;32.23
44481;BME280;30184;42.018;23.670;2023-04-28T10:07:50;91468.91;;;14.30;33.03
44481;BME280;30184;42.018;23.670;2023-04-28T10:10:21;91550.56;;;14.92;32.49
44481;BME280;30184;42.018;23.670;2023-04-28T10:12:53;91561.19;;;14.90;31.42
44481;BME280;30184;42.018;23.670;2023-04-28T10:15:23;91452.69;;;14.36;34.80
44481;BME280;30184;42.018;23.670;2023-04-28T10:17:52;91468.34;;;14.53;33.02
44481;BME280;30184;42.018;23.670;2023-04-28T10:20:22;91465.63;;;14.53;31.74
44481;BME280;30184;42.018;23.670;2023-04-28T10:23:00;91409.31;;;13.92;31.32
44481;BME280;30184;42.018;23.670;2023-04-28T10:25:35;91526.44;;;14.81;31.74
44481;BME280;30184;42.018;23.670;2023-04-28T10:28:08;91278.78;;;13.08;32.72
44481;BME280;30184;42.018;23.670;2023-04-28T10:30:37;91365.16;;;13.30;32.73
44481;BME280;30184;42.018;23.670;2023-04-28T10:33:23;91519.41;;;15.08;32.78
44481;BME280;30184;42.018;23.670;2023-04-28T10:35:56;91370.38;;;13.82;33.02
44481;BME280;30184;42.018;23.670;2023-04-28T10:38:25;91538.03;;;15.37;32.66
44481;BME280;30184;42.018;23.670;2023-04-28T10:40:55;91483.38;;;15.27;34.37
44481;BME280;30184;42.018;23.670;2023-04-28T10:43:35;91463.19;;;15.25;31.40
44481;BME280;30184;42.018;23.670;2023-04-28T10:46:09;91509.22;;;15.68;31.42
44481;BME280;30184;42.018;23.670;2023-04-28T10:48:55;91512.69;;;15.78;31.47
44481;BME280;30184;42.018;23.670;2023-04-28T10:51:31;91464.50;;;15.39;31.50
44481;BME280;30184;42.018;23.670;2023-04-28T10:54:17;91498.16;;;15.96;32.38
44481;BME280;30184;42.018;23.670;2023-04-28T10:57:19;91502.50;;;16.12;31.19
44481;BME280;30184;42.018;23.670;2023-04-28T10:59:51;91483.09;;;16.00;30.99
44481;BME280;30184;42.018;23.670;2023-04-28T11:02:47;91503.47;;;16.23;30.61
44481;BME280;30184;42.018;23.670;2023-04-28T11:05:17;91499.78;;;16.26;30.29
44481;BME280;30184;42.018;23.670;2023-04-28T11:11:21;91488.47;;;16.57;30.98
44481;BME280;30184;42.018;23.670;2023-04-28T11:13:53;91487.25;;;16.58;29.69
44481;BME280;30184;42.018;23.670;2023-04-28T11:16:24;91527.06;;;16.21;29.94
44481;BME280;30184;42.018;23.670;2023-04-28T11:19:01;91464.78;;;15.83;30.90
44481;BME280;30184;42.018;23.670;2023-04-28T11:21:34;91279.09;;;14.11;30.76
44481;BME280;30184;42.018;23.670;2023-04-28T11:24:08;91390.25;;;15.31;31.91
44481;BME280;30184;42.018;23.670;2023-04-28T11:26:39;91500.63;;;16.18;31.36
44481;BME280;30184;42.018;23.670;2023-04-28T11:29:09;91485.25;;;16.20;31.26
44481;BME280;30184;42.018;23.670;2023-04-28T11:31:48;91482.91;;;16.28;30.77
44481;BME280;30184;42.018;23.670;2023-04-28T11:34:20;91327.66;;;15.09;31.25
44481;BME280;30184;42.018;23.670;2023-04-28T11:36:50;91412.44;;;15.66;31.35
44481;BME280;30184;42.018;23.670;2023-04-28T11:39:25;91351.72;;;15.20;30.66
44481;BME280;30184;42.018;23.670;2023-04-28T11:41:57;91535.66;;;16.04;30.90
44481;BME280;30184;42.018;23.670;2023-04-28T11:44:28;91516.09;;;15.97;30.69
44481;BME280;30184;42.018;23.670;2023-04-28T11:47:01;91267.69;;;14.31;30.53
44481;BME280;30184;42.018;23.670;2023-04-28T11:49:32;91449.22;;;15.65;30.78
44481;BME280;30184;42.018;23.670;2023-04-28T11:52:10;91429.44;;;15.37;31.83
44481;BME280;30184;42.018;23.670;2023-04-28T11:54:40;91498.19;;;15.54;31.98
44481;BME280;30184;42.018;23.670;2023-04-28T11:57:17;91394.97;;;15.63;31.67
44481;BME280;30184;42.018;23.670;2023-04-28T11:59:46;91290.88;;;14.44;31.56
44481;BME280;30184;42.018;23.670;2023-04-28T12:02:24;91472.75;;;16.43;32.04
44481;BME280;30184;42.018;23.670;2023-04-28T12:05:04;91451.53;;;16.53;30.39
44481;BME280;30184;42.018;23.670;2023-04-28T12:07:40;91465.28;;;16.67;30.47
44481;BME280;30184;42.018;23.670;2023-04-28T12:10:11;91467.19;;;16.76;30.61
44481;BME280;30184;42.018;23.670;2023-04-28T12:12:43;91404.94;;;16.38;29.88
44481;BME280;30184;42.018;23.670;2023-04-28T12:15:17;91390.88;;;16.30;30.30
44481;BME280;30184;42.018;23.670;2023-04-28T12:17:48;91488.13;;;16.64;30.45
44481;BME280;30184;42.018;23.670;2023-04-28T12:20:35;91442.63;;;16.82;29.90
44481;BME280;30184;42.018;23.670;2023-04-28T12:23:05;91440.63;;;16.82;29.94
44481;BME280;30184;42.018;23.670;2023-04-28T12:25:44;91434.41;;;16.82;30.38
44481;BME280;30184;42.018;23.670;2023-04-28T12:28:14;91392.31;;;16.55;29.71
44481;BME280;30184;42.018;23.670;2023-04-28T12:30:44;91262.28;;;15.68;29.38
44481;BME280;30184;42.018;23.670;2023-04-28T12:33:25;91470.09;;;16.72;30.20
44481;BME280;30184;42.018;23.670;2023-04-28T12:35:56;91439.59;;;16.65;31.09
44481;BME280;30184;42.018;23.670;2023-04-28T12:38:26;91431.72;;;16.58;30.48
44481;BME280;30184;42.018;23.670;2023-04-28T12:40:56;91420.25;;;16.59;30.99
44481;BME280;30184;42.018;23.670;2023-04-28T12:43:25;91484.78;;;16.60;30.22
44481;BME280;30184;42.018;23.670;2023-04-28T12:45:56;91533.50;;;16.65;30.04
44481;BME280;30184;42.018;23.670;2023-04-28T12:48:30;91424.06;;;16.62;30.51
44481;BME280;30184;42.018;23.670;2023-04-28T12:50:59;91415.63;;;16.51;30.68
44481;BME280;30184;42.018;23.670;2023-04-28T12:53:29;91263.13;;;15.36;30.20
44481;BME280;30184;42.018;23.670;2023-04-28T12:55:58;91409.28;;;16.45;30.06
44481;BME280;30184;42.018;23.670;2023-04-28T12:58:29;91440.09;;;16.54;30.76
44481;BME280;30184;42.018;23.670;2023-04-28T13:00:58;91398.03;;;16.28;30.50
44481;BME280;30184;42.018;23.670;2023-04-28T13:03:29;91420.06;;;16.48;30.59
44481;BME280;30184;42.018;23.670;2023-04-28T13:05:59;91371.97;;;16.32;30.80
44481;BME280;30184;42.018;23.670;2023-04-28T13:08:28;91330.66;;;15.92;29.77
44481;BME280;30184;42.018;23.670;2023-04-28T13:11:00;91445.72;;;16.36;29.94
44481;BME280;30184;42.018;23.670;2023-04-28T13:13:36;91461.69;;;16.14;29.35
44481;BME280;30184;42.018;23.670;2023-04-28T13:16:06;91410.44;;;16.14;30.28
44481;BME280;30184;42.018;23.670;2023-04-28T13:18:37;91417.50;;;16.06;30.49
44481;BME280;30184;42.018;23.670;2023-04-28T13:21:06;91434.78;;;16.36;30.52